Time;durP1;ratioP1;P1;durP2;ratioP2;P2;SDS_P1;SDS_P2;PMS_P1;PMS_P2;Temp;Humidity;BMP_temperature;BMP_pressure;BME280_temperature;BME280_humidity;BME280_pressure;Samples;Min_cycle;Max_cycle;Signal;HPM_P1;HPM_P2
2024/02/03 00:02:09;;;;;;;;;;;;;;;26.62;38.73;95633.28;5055562;28;7058;-37
2024/02/03 00:04:45;;;;;;;;;;;;;;;26.64;38.81;95634.31;5040938;28;7267;-38
2024/02/03 00:07:22;;;;;;;;;;;;;;;26.66;38.93;95631.06;5047824;28;7415;-38
2024/02/03 00:10:25;;;;;;;;;;;;;;;26.65;38.78;95621.25;5053940;28;7967;-39
2024/02/03 00:12:51;;;;;;;;;;;;;;;26.62;38.86;95614.72;4972240;28;7305;-58
2024/02/03 00:15:18;;;;;;;;;;;;;;;26.64;38.87;95622.53;4991267;28;7261;-58
2024/02/03 00:18:25;;;;;;;;;;;;;;;26.63;38.80;95616.25;4996965;28;7272;-59
2024/02/03 00:20:52;;;;;;;;;;;;;;;26.62;38.43;95605.69;4976811;28;9303;-58
2024/02/03 00:23:28;;;;;;;;;;;;;;;26.63;38.73;95596.94;4974032;28;7200;-58
2024/02/03 00:25:56;;;;;;;;;;;;;;;26.64;38.47;95581.88;4990547;28;8796;-59
2024/02/03 00:28:32;;;;;;;;;;;;;;;26.64;38.41;95592.16;4990282;28;7257;-59
2024/02/03 00:31:16;;;;;;;;;;;;;;;26.66;38.58;95586.91;4975746;28;6990;-58
2024/02/03 00:33:43;;;;;;;;;;;;;;;26.63;38.71;95574.09;4979406;28;7225;-58
2024/02/03 00:36:22;;;;;;;;;;;;;;;26.63;38.56;95571.31;4971571;28;7241;-58
2024/02/03 00:38:51;;;;;;;;;;;;;;;26.62;38.70;95572.59;4999664;28;7353;-58
2024/02/03 00:41:17;;;;;;;;;;;;;;;26.63;38.58;95561.03;4988948;28;8030;-58
2024/02/03 00:43:48;;;;;;;;;;;;;;;26.59;37.94;95559.75;4999859;28;7272;-58
2024/02/03 00:46:17;;;;;;;;;;;;;;;26.61;38.40;95562.78;4996949;28;7333;-59
2024/02/03 00:48:49;;;;;;;;;;;;;;;26.62;38.42;95553.28;5049463;28;6942;-58
2024/02/03 00:51:20;;;;;;;;;;;;;;;26.62;38.52;95561.53;5037228;28;7250;-58
2024/02/03 00:53:46;;;;;;;;;;;;;;;26.61;38.52;95569.06;5065073;28;7005;-59
2024/02/03 00:56:14;;;;;;;;;;;;;;;26.62;38.49;95567.06;5044510;28;7287;-59
2024/02/03 00:58:43;;;;;;;;;;;;;;;26.61;38.20;95568.31;5052839;28;7147;-58
2024/02/03 01:01:18;;;;;;;;;;;;;;;26.61;38.79;95568.31;5068160;28;6972;-58
2024/02/03 01:03:52;;;;;;;;;;;;;;;26.61;38.79;95566.31;5048229;28;7172;-59
2024/02/03 01:06:18;;;;;;;;;;;;;;;26.60;38.99;95567.53;5055491;28;9211;-59
2024/02/03 01:08:44;;;;;;;;;;;;;;;26.61;38.29;95576.56;5036743;28;9057;-58
2024/02/03 01:11:11;;;;;;;;;;;;;;;26.61;38.42;95568.31;5060237;28;7493;-58
2024/02/03 01:13:37;;;;;;;;;;;;;;;26.60;38.57;95564.03;5044350;28;9142;-58
2024/02/03 01:16:03;;;;;;;;;;;;;;;26.59;38.03;95562.50;5053697;28;9107;-58
2024/02/03 01:18:31;;;;;;;;;;;;;;;26.59;38.56;95557.00;5050704;28;7054;-58
2024/02/03 01:20:58;;;;;;;;;;;;;;;26.61;38.15;95554.50;5053560;28;7247;-37
2024/02/03 01:23:25;;;;;;;;;;;;;;;26.60;38.48;95564.78;5023774;28;7406;-38
2024/02/03 01:25:59;;;;;;;;;;;;;;;26.58;38.25;95549.94;5056387;28;7037;-38
2024/02/03 01:28:33;;;;;;;;;;;;;;;26.57;37.91;95553.97;5046982;28;7736;-38
2024/02/03 01:31:29;;;;;;;;;;;;;;;26.58;38.40;95556.22;5044999;28;7269;-38
2024/02/03 01:34:08;;;;;;;;;;;;;;;26.59;38.61;95552.25;5047140;28;9801;-38
2024/02/03 01:36:43;;;;;;;;;;;;;;;26.59;38.25;95555.00;5051758;28;7436;-38
2024/02/03 01:39:09;;;;;;;;;;;;;;;26.59;38.40;95552.25;5065667;28;9096;-38
2024/02/03 01:41:35;;;;;;;;;;;;;;;26.57;38.30;95540.94;5042453;28;7069;-37
2024/02/03 01:44:01;;;;;;;;;;;;;;;26.56;38.50;95542.16;5048794;28;7056;-38
2024/02/03 01:46:35;;;;;;;;;;;;;;;26.57;38.52;95542.94;5056000;28;9104;-38
2024/02/03 01:49:02;;;;;;;;;;;;;;;26.57;38.36;95538.19;5046696;28;7139;-38
2024/02/03 01:51:29;;;;;;;;;;;;;;;26.57;38.26;95532.66;5051534;28;9208;-38
2024/02/03 01:53:56;;;;;;;;;;;;;;;26.58;38.11;95527.88;5047791;28;8810;-38
2024/02/03 01:56:25;;;;;;;;;;;;;;;26.57;38.05;95526.38;5049919;28;7003;-38
2024/02/03 01:58:51;;;;;;;;;;;;;;;26.58;38.17;95527.88;5053850;28;9092;-37
2024/02/03 02:01:17;;;;;;;;;;;;;;;26.57;38.17;95531.91;5056019;28;7602;-38
2024/02/03 02:03:46;;;;;;;;;;;;;;;26.54;38.17;95522.59;5054648;28;9043;-38
2024/02/03 02:06:12;;;;;;;;;;;;;;;26.56;37.91;95524.84;5054019;28;10354;-38
2024/02/03 02:08:39;;;;;;;;;;;;;;;26.56;38.04;95530.38;5061984;28;7139;-38
2024/02/03 02:11:07;;;;;;;;;;;;;;;26.57;37.80;95532.66;5060430;28;9201;-38
2024/02/03 02:13:35;;;;;;;;;;;;;;;26.54;37.91;95530.09;5056060;28;7283;-38
2024/02/03 02:16:03;;;;;;;;;;;;;;;26.53;38.47;95517.56;5055414;28;8929;-38
2024/02/03 02:18:35;;;;;;;;;;;;;;;26.55;38.44;95524.13;5063254;28;7195;-38
2024/02/03 02:21:02;;;;;;;;;;;;;;;26.55;37.66;95515.84;5037276;28;7074;-38
2024/02/03 02:23:29;;;;;;;;;;;;;;;26.55;38.25;95528.88;5048483;28;6994;-39
2024/02/03 02:25:57;;;;;;;;;;;;;;;26.55;38.44;95517.84;5049788;28;9360;-38
2024/02/03 02:28:24;;;;;;;;;;;;;;;26.55;37.96;95526.88;5052614;28;7268;-38
2024/02/03 02:30:50;;;;;;;;;;;;;;;26.53;37.99;95512.81;5049148;28;7275;-38
2024/02/03 02:33:26;;;;;;;;;;;;;;;26.56;38.04;95519.34;5052622;28;6935;-38
2024/02/03 02:35:53;;;;;;;;;;;;;;;26.55;38.04;95507.56;5039125;28;7287;-39
2024/02/03 02:38:23;;;;;;;;;;;;;;;26.56;38.30;95505.53;5039684;28;7011;-38
2024/02/03 02:40:49;;;;;;;;;;;;;;;26.56;37.75;95505.53;5054838;28;8777;-38
2024/02/03 02:43:15;;;;;;;;;;;;;;;26.57;38.45;95509.81;5054962;28;9037;-38
2024/02/03 02:45:41;;;;;;;;;;;;;;;26.57;38.38;95505.06;5073132;28;6853;-39
2024/02/03 02:48:14;;;;;;;;;;;;;;;26.57;37.76;95505.06;5046562;28;7235;-38
2024/02/03 02:50:51;;;;;;;;;;;;;;;26.52;38.00;95496.72;5059909;28;6978;-38
2024/02/03 02:53:17;;;;;;;;;;;;;;;26.57;37.79;95507.06;5049739;28;7185;-38
2024/02/03 02:55:47;;;;;;;;;;;;;;;26.55;38.00;95504.03;5063454;28;6932;-39
2024/02/03 02:58:13;;;;;;;;;;;;;;;26.53;38.17;95506.53;5061695;28;8111;-38
2024/02/03 03:00:47;;;;;;;;;;;;;;;26.50;38.03;95502.75;5059988;28;7529;-39
2024/02/03 03:03:16;;;;;;;;;;;;;;;26.51;38.46;95498.00;5041635;28;9420;-38
2024/02/03 03:05:49;;;;;;;;;;;;;;;26.53;38.10;95496.25;5054885;28;9419;-39
2024/02/03 03:08:21;;;;;;;;;;;;;;;26.53;37.66;95504.53;5040569;28;9330;-38
2024/02/03 03:10:47;;;;;;;;;;;;;;;26.52;37.84;95502.25;5066428;28;7348;-38
2024/02/03 03:13:13;;;;;;;;;;;;;;;26.50;37.86;95496.47;5050690;28;9473;-38
2024/02/03 03:15:39;;;;;;;;;;;;;;;26.53;38.47;95498.25;5044223;28;7103;-39
2024/02/03 03:18:08;;;;;;;;;;;;;;;26.52;37.99;95486.47;5048483;28;9539;-38
2024/02/03 03:20:35;;;;;;;;;;;;;;;26.53;37.91;95487.22;5064740;28;8733;-38
2024/02/03 03:23:02;;;;;;;;;;;;;;;26.54;37.93;95492.25;5068109;28;7193;-39
2024/02/03 03:25:31;;;;;;;;;;;;;;;26.51;38.08;95484.19;5049499;28;7749;-39
2024/02/03 03:28:00;;;;;;;;;;;;;;;26.53;37.96;95493.50;5045541;28;7350;-38
2024/02/03 03:30:28;;;;;;;;;;;;;;;26.54;38.46;95488.72;5051510;28;7068;-38
2024/02/03 03:32:55;;;;;;;;;;;;;;;26.52;37.94;95485.69;5068096;28;9295;-38
2024/02/03 03:35:27;;;;;;;;;;;;;;;26.48;37.72;95485.94;5051571;28;9028;-38
2024/02/03 03:37:53;;;;;;;;;;;;;;;26.50;38.10;95485.44;5054624;28;9460;-38
2024/02/03 03:40:21;;;;;;;;;;;;;;;26.49;37.69;95497.72;5049276;28;7058;-38
2024/02/03 03:42:49;;;;;;;;;;;;;;;26.50;37.83;95488.19;5057624;28;7332;-37
2024/02/03 03:45:17;;;;;;;;;;;;;;;26.51;38.03;95489.72;5041398;28;7260;-38
2024/02/03 03:47:46;;;;;;;;;;;;;;;26.50;37.75;95488.19;5052050;28;6993;-38
2024/02/03 03:50:22;;;;;;;;;;;;;;;26.51;37.59;95495.97;5067864;28;9287;-38
2024/02/03 03:53:18;;;;;;;;;;;;;;;26.51;38.08;95489.72;5049153;28;9478;-38
2024/02/03 03:55:54;;;;;;;;;;;;;;;26.51;37.86;95489.72;5021976;28;9041;-37
2024/02/03 03:58:20;;;;;;;;;;;;;;;26.50;37.78;95490.94;5029243;28;7089;-37
2024/02/03 04:00:49;;;;;;;;;;;;;;;26.48;37.64;95488.69;5029714;28;7157;-38
2024/02/03 04:03:17;;;;;;;;;;;;;;;26.46;37.80;95490.44;5013077;28;7769;-38
2024/02/03 04:05:45;;;;;;;;;;;;;;;26.50;37.93;95490.94;5029917;28;7359;-38
2024/02/03 04:08:11;;;;;;;;;;;;;;;26.50;37.72;95488.19;5012960;28;9100;-38
2024/02/03 04:10:40;;;;;;;;;;;;;;;26.50;37.63;95485.44;5012317;28;9390;-38
2024/02/03 04:13:06;;;;;;;;;;;;;;;26.50;37.88;95493.72;5026276;28;6994;-38
2024/02/03 04:15:33;;;;;;;;;;;;;;;26.50;37.91;95493.72;5012941;28;7188;-38
2024/02/03 04:17:59;;;;;;;;;;;;;;;26.51;38.19;95500.75;5031044;28;8434;-38
2024/02/03 04:20:28;;;;;;;;;;;;;;;26.48;37.96;95496.97;5018159;28;7258;-38
2024/02/03 04:22:54;;;;;;;;;;;;;;;26.52;38.22;95497.50;5022189;28;9126;-38
2024/02/03 04:25:20;;;;;;;;;;;;;;;26.46;37.78;95482.16;5016549;28;7292;-38
2024/02/03 04:27:49;;;;;;;;;;;;;;;26.47;38.04;95481.66;5015377;28;9309;-38
2024/02/03 04:30:17;;;;;;;;;;;;;;;26.46;37.67;95487.66;5030557;28;7836;-38
2024/02/03 04:32:43;;;;;;;;;;;;;;;26.44;37.76;95488.16;5032706;28;7255;-38
2024/02/03 04:35:10;;;;;;;;;;;;;;;26.47;37.74;95489.19;5045846;28;6998;-38
2024/02/03 04:37:35;;;;;;;;;;;;;;;26.46;38.05;95485.66;5051244;28;7274;-38
2024/02/03 04:40:02;;;;;;;;;;;;;;;26.48;37.92;95479.66;5037282;28;9131;-38
2024/02/03 04:42:28;;;;;;;;;;;;;;;26.45;37.76;95475.09;5057942;28;7254;-38
2024/02/03 04:44:56;;;;;;;;;;;;;;;26.46;37.87;95488.44;5046737;28;8089;-38
2024/02/03 04:47:33;;;;;;;;;;;;;;;26.46;37.78;95476.63;5069810;28;8513;-38
2024/02/03 04:50:07;;;;;;;;;;;;;;;26.45;37.64;95486.13;5053509;28;8275;-38
2024/02/03 04:52:39;;;;;;;;;;;;;;;26.45;38.03;95480.63;5066854;28;8848;-47
2024/02/03 04:55:15;;;;;;;;;;;;;;;26.42;37.68;95476.88;5067139;28;7243;-48
2024/02/03 04:58:02;;;;;;;;;;;;;;;26.45;37.91;95475.09;5053326;28;7068;-48
2024/02/03 05:00:30;;;;;;;;;;;;;;;26.45;38.14;95483.38;5078658;28;6986;-48
2024/02/03 05:03:04;;;;;;;;;;;;;;;26.44;38.11;95481.88;5054555;28;7268;-47
2024/02/03 05:05:36;;;;;;;;;;;;;;;26.42;37.80;95479.63;5066869;28;9619;-48
2024/02/03 05:08:11;;;;;;;;;;;;;;;26.43;38.01;95477.59;5064665;28;7149;-49
2024/02/03 05:11:04;;;;;;;;;;;;;;;26.40;37.78;95478.59;5047414;28;7383;-48
2024/02/03 05:13:41;;;;;;;;;;;;;;;26.39;38.14;95475.06;5066471;28;8737;-49
2024/02/03 05:16:08;;;;;;;;;;;;;;;26.40;37.90;95468.31;5058509;28;9071;-48
2024/02/03 05:18:40;;;;;;;;;;;;;;;26.42;38.04;95467.81;5057766;28;9045;-48
2024/02/03 05:21:07;;;;;;;;;;;;;;;26.37;37.96;95471.28;5063787;28;7604;-48
2024/02/03 05:23:35;;;;;;;;;;;;;;;26.37;37.41;95477.56;5060091;28;7271;-47
2024/02/03 05:26:02;;;;;;;;;;;;;;;26.34;38.11;95475.03;5057579;28;7213;-48
2024/02/03 05:28:28;;;;;;;;;;;;;;;26.34;38.23;95484.06;5052464;28;7066;-50
2024/02/03 05:30:54;;;;;;;;;;;;;;;26.36;39.52;95478.81;5047864;28;7247;-49
2024/02/03 05:33:20;;;;;;;;;;;;;;;26.40;38.87;95476.59;5053330;28;6996;-47
2024/02/03 05:35:56;;;;;;;;;;;;;;;26.41;39.47;95472.59;5044659;28;7066;-47
2024/02/03 05:38:34;;;;;;;;;;;;;;;26.41;40.26;95477.34;5044732;28;7292;-47
2024/02/03 05:41:00;;;;;;;;;;;;;;;26.41;40.30;95475.34;5056518;28;7224;-48
2024/02/03 05:43:26;;;;;;;;;;;;;;;26.39;40.18;95475.06;5054793;28;9253;-48
2024/02/03 05:45:56;;;;;;;;;;;;;;;26.41;39.98;95478.09;5081139;28;7331;-48
2024/02/03 05:48:23;;;;;;;;;;;;;;;26.37;40.08;95476.81;5068679;28;7274;-49
2024/02/03 05:50:49;;;;;;;;;;;;;;;26.40;40.11;95482.13;5060474;28;6980;-47
2024/02/03 05:53:15;;;;;;;;;;;;;;;26.41;39.70;95478.09;5044008;28;7050;-49
2024/02/03 05:56:17;;;;;;;;;;;;;;;26.42;39.37;95471.34;5060506;28;7212;-47
2024/02/03 05:58:44;;;;;;;;;;;;;;;26.39;38.73;95471.56;5037689;28;7241;-48
2024/02/03 06:01:11;;;;;;;;;;;;;;;26.32;38.87;95478.28;5062725;28;7234;-38
2024/02/03 06:03:37;;;;;;;;;;;;;;;26.36;39.21;95486.34;5068527;28;9146;-42
2024/02/03 06:06:03;;;;;;;;;;;;;;;26.36;39.65;95484.31;5054564;28;7581;-42
2024/02/03 06:08:29;;;;;;;;;;;;;;;26.33;39.37;95473.53;5055912;28;7360;-43
2024/02/03 06:10:56;;;;;;;;;;;;;;;26.37;39.75;95480.31;5047379;28;6995;-43
2024/02/03 06:13:24;;;;;;;;;;;;;;;26.37;39.10;95474.03;5052197;28;9517;-43
2024/02/03 06:15:52;;;;;;;;;;;;;;;26.39;39.26;95480.59;5049653;28;7046;-44
2024/02/03 06:18:19;;;;;;;;;;;;;;;26.42;39.48;95479.63;5052197;28;9114;-42
2024/02/03 06:20:47;;;;;;;;;;;;;;;26.45;39.35;95484.16;5043772;28;9125;-44
2024/02/03 06:23:18;;;;;;;;;;;;;;;26.44;39.34;95484.66;5074116;28;7370;-44
2024/02/03 06:25:43;;;;;;;;;;;;;;;26.43;38.99;95477.59;5040770;28;9658;-42
2024/02/03 06:28:11;;;;;;;;;;;;;;;26.44;39.10;95487.41;5063628;28;6955;-44
2024/02/03 06:30:46;;;;;;;;;;;;;;;26.44;39.00;95485.41;5050117;28;7529;-43
2024/02/03 06:33:14;;;;;;;;;;;;;;;26.43;39.42;95483.88;5050073;28;7006;-43
2024/02/03 06:35:41;;;;;;;;;;;;;;;26.38;39.19;95483.84;5044843;28;9081;-44
2024/02/03 06:38:07;;;;;;;;;;;;;;;26.42;38.78;95489.91;5046936;28;7282;-43
2024/02/03 06:40:33;;;;;;;;;;;;;;;26.41;38.45;95491.13;5046557;28;9563;-43
2024/02/03 06:42:59;;;;;;;;;;;;;;;26.41;38.64;95496.66;5061584;28;8998;-44
2024/02/03 06:45:27;;;;;;;;;;;;;;;26.40;38.60;95495.16;5051136;28;6863;-44
2024/02/03 06:47:53;;;;;;;;;;;;;;;26.41;38.79;95485.63;5046780;28;9113;-43
2024/02/03 06:50:25;;;;;;;;;;;;;;;26.43;39.31;95492.16;5061554;28;9059;-42
2024/02/03 06:52:54;;;;;;;;;;;;;;;26.46;39.38;95498.69;5053204;28;9222;-43
2024/02/03 06:55:20;;;;;;;;;;;;;;;26.46;38.80;95498.69;5061386;28;9761;-44
2024/02/03 06:57:46;;;;;;;;;;;;;;;26.47;37.89;95500.22;5034935;28;7262;-43
2024/02/03 07:00:13;;;;;;;;;;;;;;;26.45;38.19;95502.69;5048681;28;6997;-43
2024/02/03 07:02:45;;;;;;;;;;;;;;;26.43;38.19;95500.44;5061297;28;7593;-43
2024/02/03 07:05:19;;;;;;;;;;;;;;;26.42;38.35;95500.94;5064599;28;9613;-43
2024/02/03 07:07:46;;;;;;;;;;;;;;;26.43;37.98;95505.19;5050942;28;7223;-42
2024/02/03 07:10:34;;;;;;;;;;;;;;;26.44;38.37;95501.19;5049498;28;7222;-43
2024/02/03 07:13:08;;;;;;;;;;;;;;;26.42;38.74;95498.16;5055816;28;7011;-59
2024/02/03 07:15:33;;;;;;;;;;;;;;;26.35;38.48;95488.34;5040185;28;7459;-58
2024/02/03 07:18:02;;;;;;;;;;;;;;;26.41;38.60;95496.66;5063345;28;9097;-58
2024/02/03 07:20:57;;;;;;;;;;;;;;;26.41;38.54;95493.88;5066510;28;8276;-59
2024/02/03 07:23:57;;;;;;;;;;;;;;;26.42;38.30;95506.44;5050634;28;7023;-59
2024/02/03 07:26:28;;;;;;;;;;;;;;;26.40;38.29;95498.66;5071984;28;7251;-59
2024/02/03 07:28:56;;;;;;;;;;;;;;;26.41;38.17;95510.44;5072098;28;7554;-60
2024/02/03 07:31:32;;;;;;;;;;;;;;;26.40;38.24;95504.19;5056458;28;7475;-58
2024/02/03 07:34:11;;;;;;;;;;;;;;;26.43;38.77;95497.66;5039702;28;7209;-59
2024/02/03 07:36:38;;;;;;;;;;;;;;;26.41;38.75;95491.13;5048953;28;9131;-59
2024/02/03 07:39:05;;;;;;;;;;;;;;;26.42;38.58;95504.44;5064099;28;9301;-58
2024/02/03 07:41:31;;;;;;;;;;;;;;;26.39;38.89;95507.41;5073847;28;7202;-58
2024/02/03 07:43:57;;;;;;;;;;;;;;;26.42;38.94;95500.94;5044209;28;7290;-58
2024/02/03 07:46:30;;;;;;;;;;;;;;;26.43;38.60;95494.16;5053463;28;7228;-58
2024/02/03 07:49:06;;;;;;;;;;;;;;;26.41;38.83;95493.88;5074734;28;7224;-58
2024/02/03 07:51:34;;;;;;;;;;;;;;;26.42;38.72;95500.94;5071651;28;7053;-58
2024/02/03 07:54:15;;;;;;;;;;;;;;;26.41;38.96;95497.41;5081798;28;9227;-58
2024/02/03 07:56:49;;;;;;;;;;;;;;;26.44;38.90;95501.97;5048640;28;7270;-58
2024/02/03 07:59:16;;;;;;;;;;;;;;;26.44;38.57;95499.19;5044506;28;7090;-57
2024/02/03 08:01:42;;;;;;;;;;;;;;;26.45;38.38;95492.41;5060996;28;7174;-58
2024/02/03 08:04:10;;;;;;;;;;;;;;;26.44;38.91;95490.91;5044902;28;8691;-58
2024/02/03 08:07:08;;;;;;;;;;;;;;;26.44;38.59;95492.91;5055710;28;9037;-57
2024/02/03 08:10:04;;;;;;;;;;;;;;;26.41;38.91;95485.63;4986261;28;9049;-57
2024/02/03 08:12:31;;;;;;;;;;;;;;;26.40;38.38;95484.88;4921377;29;7359;-57
2024/02/03 08:14:57;;;;;;;;;;;;;;;26.40;38.46;95489.63;4916715;29;8098;-57
2024/02/03 08:17:23;;;;;;;;;;;;;;;26.40;38.91;95490.41;4909465;29;7226;-57
2024/02/03 08:19:57;;;;;;;;;;;;;;;26.42;38.72;95492.66;4927143;29;7805;-58
2024/02/03 08:22:32;;;;;;;;;;;;;;;26.45;39.47;95495.19;4927494;29;7490;-39
2024/02/03 08:25:00;;;;;;;;;;;;;;;26.47;39.08;95489.94;4922523;29;7439;-38
2024/02/03 08:27:40;;;;;;;;;;;;;;;26.47;39.43;95489.19;4910792;29;9469;-38
2024/02/03 08:30:07;;;;;;;;;;;;;;;26.51;39.44;95489.72;4932829;29;8926;-39
2024/02/03 08:32:43;;;;;;;;;;;;;;;26.53;38.92;95490.75;4932229;29;9496;-40
2024/02/03 08:35:12;;;;;;;;;;;;;;;26.54;38.99;95489.47;4914655;29;7681;-39
2024/02/03 08:37:38;;;;;;;;;;;;;;;26.56;39.11;95486.22;4913431;29;8972;-39
2024/02/03 08:40:04;;;;;;;;;;;;;;;26.56;39.23;95488.97;4924850;29;6968;-39
2024/02/03 08:42:31;;;;;;;;;;;;;;;26.59;39.39;95488.78;4917622;29;8286;-39
2024/02/03 08:44:57;;;;;;;;;;;;;;;26.59;39.53;95490.78;4959397;28;6999;-39
2024/02/03 08:47:31;;;;;;;;;;;;;;;26.57;39.52;95493.28;4990938;28;7136;-39
2024/02/03 08:49:58;;;;;;;;;;;;;;;26.57;39.13;95487.75;5040326;28;7356;-39
2024/02/03 08:52:25;;;;;;;;;;;;;;;26.56;39.47;95495.25;5053204;28;7907;-39
2024/02/03 08:54:51;;;;;;;;;;;;;;;26.58;39.38;95489.25;5047957;28;7121;-39
2024/02/03 08:57:18;;;;;;;;;;;;;;;26.58;39.54;95489.25;5048276;28;7070;-40
2024/02/03 08:59:54;;;;;;;;;;;;;;;26.60;39.10;95492.28;5049940;28;7024;-40
2024/02/03 09:02:21;;;;;;;;;;;;;;;26.57;39.44;95487.75;5048048;28;7492;-39
2024/02/03 09:04:49;;;;;;;;;;;;;;;26.58;39.24;95490.00;5048701;28;7222;-40
2024/02/03 09:07:18;;;;;;;;;;;;;;;26.57;39.12;95485.00;5059446;28;7968;-41
2024/02/03 09:09:52;;;;;;;;;;;;;;;26.61;38.99;95491.03;5036939;28;9117;-40
2024/02/03 09:12:25;;;;;;;;;;;;;;;26.61;38.70;95493.78;5041547;28;9290;-40
2024/02/03 09:15:06;;;;;;;;;;;;;;;26.60;39.20;95487.50;5068917;28;8749;-39
2024/02/03 09:17:33;;;;;;;;;;;;;;;26.61;39.33;95493.78;5055799;28;9118;-39
2024/02/03 09:20:00;;;;;;;;;;;;;;;26.62;39.20;95496.06;5050110;28;7359;-40
2024/02/03 09:22:29;;;;;;;;;;;;;;;26.64;39.33;95490.06;5070499;28;7514;-39
2024/02/03 09:25:08;;;;;;;;;;;;;;;26.63;39.57;95489.31;5057259;28;9406;-40
2024/02/03 09:27:42;;;;;;;;;;;;;;;26.67;39.35;95497.34;5051194;28;7383;-39
2024/02/03 09:30:20;;;;;;;;;;;;;;;26.68;39.37;95499.63;5047806;28;7015;-39
2024/02/03 09:32:54;;;;;;;;;;;;;;;26.68;39.02;95505.16;5043621;28;7411;-39
2024/02/03 09:35:27;;;;;;;;;;;;;;;26.68;39.69;95505.16;5048184;28;7249;-39
2024/02/03 09:37:52;;;;;;;;;;;;;;;26.68;39.06;95499.63;5069149;28;7296;-40
2024/02/03 09:40:22;;;;;;;;;;;;;;;26.69;39.16;95500.38;5048065;28;8256;-40
2024/02/03 09:42:49;;;;;;;;;;;;;;;26.71;38.44;95506.16;5042973;28;7294;-57
2024/02/03 09:45:15;;;;;;;;;;;;;;;26.70;38.88;95508.16;5044402;28;7346;-57
2024/02/03 09:48:21;;;;;;;;;;;;;;;26.71;38.76;95517.19;5055250;28;9647;-57
2024/02/03 09:51:00;;;;;;;;;;;;;;;26.70;39.43;95507.41;5042684;28;8822;-57
2024/02/03 09:53:37;;;;;;;;;;;;;;;26.72;39.12;95504.91;5071576;28;7001;-56
2024/02/03 09:56:05;;;;;;;;;;;;;;;26.70;38.89;95499.88;5047672;28;7255;-57
2024/02/03 09:58:43;;;;;;;;;;;;;;;26.72;39.16;95513.19;5079357;28;7749;-57
2024/02/03 10:01:09;;;;;;;;;;;;;;;26.74;39.30;95499.69;5056073;28;7294;-57
2024/02/03 10:03:37;;;;;;;;;;;;;;;26.75;39.27;95503.97;5048087;28;7383;-56
2024/02/03 10:06:10;;;;;;;;;;;;;;;26.73;39.03;95493.41;5058945;28;7246;-56
2024/02/03 10:08:38;;;;;;;;;;;;;;;26.73;39.12;95498.91;5056565;28;9075;-56
2024/02/03 10:11:05;;;;;;;;;;;;;;;26.75;38.82;95496.41;5052025;28;7088;-56
2024/02/03 10:13:37;;;;;;;;;;;;;;;26.76;38.49;95499.94;5055598;28;7113;-56
2024/02/03 10:16:04;;;;;;;;;;;;;;;26.77;38.72;95498.72;5064873;28;8849;-56
2024/02/03 10:18:34;;;;;;;;;;;;;;;26.75;38.89;95490.16;5059783;28;7238;-55
2024/02/03 10:21:02;;;;;;;;;;;;;;;26.78;38.93;95486.41;5041480;28;7281;-55
2024/02/03 10:23:32;;;;;;;;;;;;;;;26.76;39.02;95486.16;5050112;28;7904;-56
2024/02/03 10:26:03;;;;;;;;;;;;;;;26.78;38.90;95483.66;5073699;28;7045;-56
2024/02/03 10:28:29;;;;;;;;;;;;;;;26.79;38.81;95485.16;5061902;28;9273;-56
2024/02/03 10:31:01;;;;;;;;;;;;;;;26.77;38.80;95474.59;5051154;28;7128;-56
2024/02/03 10:33:27;;;;;;;;;;;;;;;26.77;39.00;95471.09;5041762;28;7356;-56
2024/02/03 10:35:53;;;;;;;;;;;;;;;26.80;38.58;95478.38;5056647;28;8717;-56
2024/02/03 10:38:20;;;;;;;;;;;;;;;26.82;38.74;95473.88;5052039;28;9067;-56
2024/02/03 10:40:46;;;;;;;;;;;;;;;26.80;38.52;95462.59;5049524;28;6989;-56
2024/02/03 10:43:21;;;;;;;;;;;;;;;26.84;38.59;95463.09;5051626;28;7131;-56
2024/02/03 10:45:54;;;;;;;;;;;;;;;26.85;38.62;95458.34;5053734;28;9021;-56
2024/02/03 10:48:25;;;;;;;;;;;;;;;26.86;38.26;95460.59;5040478;28;7195;-56
2024/02/03 10:51:12;;;;;;;;;;;;;;;26.88;38.60;95460.13;5062395;28;9305;-41
2024/02/03 10:53:51;;;;;;;;;;;;;;;26.86;38.30;95452.31;5042925;28;7270;-42
2024/02/03 10:56:49;;;;;;;;;;;;;;;26.88;38.36;95452.59;5041768;28;9232;-43
2024/02/03 10:59:42;;;;;;;;;;;;;;;26.89;38.58;95454.13;4998573;28;8439;-41
2024/02/03 11:02:19;;;;;;;;;;;;;;;26.89;38.66;95442.31;5015931;28;7277;-41
2024/02/03 11:04:53;;;;;;;;;;;;;;;26.90;39.02;95438.31;4995240;28;8234;-41
2024/02/03 11:07:28;;;;;;;;;;;;;;;26.90;38.51;95443.84;4991672;28;7857;-43
2024/02/03 11:10:06;;;;;;;;;;;;;;;26.87;38.08;95442.03;5004365;28;8004;-41
2024/02/03 11:12:34;;;;;;;;;;;;;;;26.85;38.68;95441.78;4994752;28;7380;-43
2024/02/03 11:15:14;;;;;;;;;;;;;;;26.84;38.22;95443.78;5010170;28;9152;-42
2024/02/03 11:17:53;;;;;;;;;;;;;;;26.84;37.43;95440.25;5012546;28;7838;-42
2024/02/03 11:20:32;;;;;;;;;;;;;;;26.88;38.13;95438.78;5002496;28;8003;-41
2024/02/03 11:22:58;;;;;;;;;;;;;;;26.89;38.12;95437.53;5024481;28;7616;-43
2024/02/03 11:25:27;;;;;;;;;;;;;;;26.88;38.16;95429.78;5012613;28;7114;-42
2024/02/03 11:27:54;;;;;;;;;;;;;;;26.89;38.34;95428.50;5004262;28;9103;-43
2024/02/03 11:30:20;;;;;;;;;;;;;;;26.91;38.08;95428.75;5011429;28;9108;-43
2024/02/03 11:32:47;;;;;;;;;;;;;;;26.92;38.19;95435.03;5014421;28;9049;-42
2024/02/03 11:35:17;;;;;;;;;;;;;;;26.91;38.63;95426.00;5002242;28;8489;-44
2024/02/03 11:37:43;;;;;;;;;;;;;;;26.89;38.24;95420.97;5042967;28;6973;-41
2024/02/03 11:40:10;;;;;;;;;;;;;;;26.92;39.02;95424.75;5057016;28;9071;-41
2024/02/03 11:42:36;;;;;;;;;;;;;;;26.94;38.79;95416.75;5058406;28;7356;-41
2024/02/03 11:45:04;;;;;;;;;;;;;;;26.96;38.60;95413.47;5046426;28;7003;-42
2024/02/03 11:48:05;;;;;;;;;;;;;;;26.97;38.93;95409.47;5045464;28;9523;-42
2024/02/03 11:50:31;;;;;;;;;;;;;;;26.98;38.84;95411.72;4991705;28;8785;-42
2024/02/03 11:53:09;;;;;;;;;;;;;;;26.99;39.19;95404.22;4963958;28;6999;-41
2024/02/03 11:55:44;;;;;;;;;;;;;;;26.96;38.77;95394.91;4962111;28;7345;-40
2024/02/03 11:58:20;;;;;;;;;;;;;;;26.98;39.04;95394.41;4969655;28;7279;-43
2024/02/03 12:01:08;;;;;;;;;;;;;;;26.98;39.13;95395.16;4967711;28;7066;-39
2024/02/03 12:03:49;;;;;;;;;;;;;;;26.99;38.89;95391.13;4981523;28;7236;-39
2024/02/03 12:06:25;;;;;;;;;;;;;;;27.00;38.95;95383.63;4976375;28;7384;-39
2024/02/03 12:09:00;;;;;;;;;;;;;;;26.98;39.39;95395.16;4964998;28;9147;-39
2024/02/03 12:11:28;;;;;;;;;;;;;;;27.00;39.35;95392.66;4986970;28;9627;-39
2024/02/03 12:14:05;;;;;;;;;;;;;;;26.99;38.85;95382.84;4959307;28;7256;-39
2024/02/03 12:17:01;;;;;;;;;;;;;;;27.03;39.13;95377.88;4976804;28;9402;-38
2024/02/03 12:19:27;;;;;;;;;;;;;;;27.02;39.48;95370.81;4984187;28;7076;-38
2024/02/03 12:21:56;;;;;;;;;;;;;;;27.09;39.26;95367.59;4975157;28;6991;-38
2024/02/03 12:24:22;;;;;;;;;;;;;;;27.11;39.07;95370.59;4970721;28;7117;-38
2024/02/03 12:26:55;;;;;;;;;;;;;;;27.12;38.93;95358.28;5038286;28;6986;-38
2024/02/03 12:29:24;;;;;;;;;;;;;;;27.15;39.27;95359.31;5042884;28;7329;-38
2024/02/03 12:31:51;;;;;;;;;;;;;;;27.18;39.07;95361.09;5064121;28;7087;-38
2024/02/03 12:34:27;;;;;;;;;;;;;;;27.18;38.74;95364.63;5067852;28;9073;-39
2024/02/03 12:37:02;;;;;;;;;;;;;;;27.17;39.03;95357.56;5049405;28;9053;-39
2024/02/03 12:39:30;;;;;;;;;;;;;;;27.18;38.88;95353.56;5045080;28;7227;-41
2024/02/03 12:41:56;;;;;;;;;;;;;;;27.16;38.61;95356.06;5051411;28;9202;-39
2024/02/03 12:44:22;;;;;;;;;;;;;;;27.18;39.00;95359.09;5047240;28;6969;-39
2024/02/03 12:46:50;;;;;;;;;;;;;;;27.18;38.71;95356.31;5046935;28;8675;-39
2024/02/03 12:49:16;;;;;;;;;;;;;;;27.23;38.83;95357.59;5068978;28;7188;-39
2024/02/03 12:51:52;;;;;;;;;;;;;;;27.24;38.90;95359.84;5049058;28;6999;-39
2024/02/03 12:54:27;;;;;;;;;;;;;;;27.27;38.03;95350.59;5051502;28;9076;-39
2024/02/03 12:56:53;;;;;;;;;;;;;;;27.30;37.86;95355.09;5059594;28;7213;-39
2024/02/03 12:59:21;;;;;;;;;;;;;;;27.30;37.68;95355.09;5059342;28;7099;-39
2024/02/03 13:01:47;;;;;;;;;;;;;;;27.28;37.87;95360.34;5049735;28;9514;-39
2024/02/03 13:04:24;;;;;;;;;;;;;;;27.27;37.80;95350.59;5038374;28;7198;-39
2024/02/03 13:06:51;;;;;;;;;;;;;;;27.26;38.18;95348.28;5053550;28;7519;-39
2024/02/03 13:09:17;;;;;;;;;;;;;;;27.29;37.84;95342.53;5074133;28;9114;-40
2024/02/03 13:11:53;;;;;;;;;;;;;;;27.35;37.74;95348.06;5051719;28;7264;-56
2024/02/03 13:14:20;;;;;;;;;;;;;;;27.37;38.16;95342.81;5070487;28;7336;-56
2024/02/03 13:16:47;;;;;;;;;;;;;;;27.37;37.72;95349.09;5037484;28;7262;-56
2024/02/03 13:19:14;;;;;;;;;;;;;;;27.40;38.03;95345.34;5049128;28;7182;-56